Rio Brilhante, Brazil
Current Conditions -  °F | °C
As of 10:00 PM on Tuesday 21 Oct 2014 (Local Time) from SBCG Reporting Station
Clear Clear  
Wind Chill: 73°   Ceiling: Unl
Heat Index: 73°   Visibility: 6mi
Dew Point: 64°   Wind: 10mph
Humidity: 73%   Direction: 140°SE
Pressure: 30"   Gusts: NA
Location:  21.8°S, 54.55°W
Report Text: SBCG 220100Z 14009KT 110V170 CAVOK 23/18 Q1016
Loading
Personal Weather Stations






























Interactive Weather Map New forecast layout! Learn more

10-Day Weather Forecast

Advertisements
Track Severe Weather on mobile